sensor_id;sensor_type;location;lat;lon;timestamp;temperature;humidity
52044;DHT22;38053;53.100;6.078;2022-07-23T00:02:05;13.20;99.90
52044;DHT22;38053;53.100;6.078;2022-07-23T00:04:33;13.20;99.90
52044;DHT22;38053;53.100;6.078;2022-07-23T00:06:58;13.20;99.90
52044;DHT22;38053;53.100;6.078;2022-07-23T00:09:24;13.20;99.90
52044;DHT22;38053;53.100;6.078;2022-07-23T00:11:50;13.20;99.90
52044;DHT22;38053;53.100;6.078;2022-07-23T00:14:15;13.20;99.90
52044;DHT22;38053;53.100;6.078;2022-07-23T00:16:41;13.20;99.90
52044;DHT22;38053;53.100;6.078;2022-07-23T00:19:06;13.20;99.90
52044;DHT22;38053;53.100;6.078;2022-07-23T00:21:32;13.20;99.90
52044;DHT22;38053;53.100;6.078;2022-07-23T00:23:58;13.10;99.90
52044;DHT22;38053;53.100;6.078;2022-07-23T00:26:23;13.10;99.90
52044;DHT22;38053;53.100;6.078;2022-07-23T00:28:49;13.10;99.90
52044;DHT22;38053;53.100;6.078;2022-07-23T00:31:15;13.00;99.90
52044;DHT22;38053;53.100;6.078;2022-07-23T00:33:40;13.10;99.90
52044;DHT22;38053;53.100;6.078;2022-07-23T00:36:06;13.00;99.90
52044;DHT22;38053;53.100;6.078;2022-07-23T00:38:32;13.00;99.90
52044;DHT22;38053;53.100;6.078;2022-07-23T00:40:58;13.00;99.90
52044;DHT22;38053;53.100;6.078;2022-07-23T00:43:24;13.00;99.90
52044;DHT22;38053;53.100;6.078;2022-07-23T00:45:50;13.00;99.90
52044;DHT22;38053;53.100;6.078;2022-07-23T00:48:16;13.00;99.90
52044;DHT22;38053;53.100;6.078;2022-07-23T00:50:43;13.00;99.90
52044;DHT22;38053;53.100;6.078;2022-07-23T00:53:08;13.00;99.90
52044;DHT22;38053;53.100;6.078;2022-07-23T00:55:34;13.00;99.90
52044;DHT22;38053;53.100;6.078;2022-07-23T00:58:02;12.90;99.90
52044;DHT22;38053;53.100;6.078;2022-07-23T01:00:28;12.90;99.90
52044;DHT22;38053;53.100;6.078;2022-07-23T01:02:54;12.90;99.90
52044;DHT22;38053;53.100;6.078;2022-07-23T01:05:20;12.90;99.90
52044;DHT22;38053;53.100;6.078;2022-07-23T01:07:49;12.80;99.90
52044;DHT22;38053;53.100;6.078;2022-07-23T01:10:15;12.80;99.90
52044;DHT22;38053;53.100;6.078;2022-07-23T01:13:07;12.80;99.90
52044;DHT22;38053;53.100;6.078;2022-07-23T01:15:35;12.80;99.90
52044;DHT22;38053;53.100;6.078;2022-07-23T01:18:01;12.80;99.90
52044;DHT22;38053;53.100;6.078;2022-07-23T01:20:27;12.70;99.90
52044;DHT22;38053;53.100;6.078;2022-07-23T01:22:53;12.70;99.90
52044;DHT22;38053;53.100;6.078;2022-07-23T01:25:20;12.70;99.90
52044;DHT22;38053;53.100;6.078;2022-07-23T01:27:45;12.70;99.90
52044;DHT22;38053;53.100;6.078;2022-07-23T01:30:12;12.60;99.90
52044;DHT22;38053;53.100;6.078;2022-07-23T01:32:38;12.60;99.90
52044;DHT22;38053;53.100;6.078;2022-07-23T01:35:05;12.60;99.90
52044;DHT22;38053;53.100;6.078;2022-07-23T01:37:31;12.60;99.90
52044;DHT22;38053;53.100;6.078;2022-07-23T01:39:56;12.50;99.90
52044;DHT22;38053;53.100;6.078;2022-07-23T01:42:22;12.40;99.90
52044;DHT22;38053;53.100;6.078;2022-07-23T01:44:49;12.40;99.90
52044;DHT22;38053;53.100;6.078;2022-07-23T01:47:15;12.40;99.90
52044;DHT22;38053;53.100;6.078;2022-07-23T01:49:41;12.40;99.90
52044;DHT22;38053;53.100;6.078;2022-07-23T01:52:06;12.30;99.90
52044;DHT22;38053;53.100;6.078;2022-07-23T01:54:36;12.30;99.90
52044;DHT22;38053;53.100;6.078;2022-07-23T01:57:02;12.30;99.90
52044;DHT22;38053;53.100;6.078;2022-07-23T01:59:29;12.30;99.90
52044;DHT22;38053;53.100;6.078;2022-07-23T02:01:55;12.20;99.90
52044;DHT22;38053;53.100;6.078;2022-07-23T02:04:22;12.20;99.90
52044;DHT22;38053;53.100;6.078;2022-07-23T02:06:49;12.20;99.90
52044;DHT22;38053;53.100;6.078;2022-07-23T02:09:15;12.20;99.90
52044;DHT22;38053;53.100;6.078;2022-07-23T02:11:41;12.10;99.90
52044;DHT22;38053;53.100;6.078;2022-07-23T02:14:07;12.10;99.90
52044;DHT22;38053;53.100;6.078;2022-07-23T02:16:32;12.10;99.90
52044;DHT22;38053;53.100;6.078;2022-07-23T02:18:58;12.10;99.90
52044;DHT22;38053;53.100;6.078;2022-07-23T02:21:24;12.10;99.90
52044;DHT22;38053;53.100;6.078;2022-07-23T02:23:49;12.00;99.90
52044;DHT22;38053;53.100;6.078;2022-07-23T02:26:15;12.00;99.90
52044;DHT22;38053;53.100;6.078;2022-07-23T02:28:41;12.00;99.90
52044;DHT22;38053;53.100;6.078;2022-07-23T02:31:06;12.00;99.90
52044;DHT22;38053;53.100;6.078;2022-07-23T02:33:33;12.00;99.90
52044;DHT22;38053;53.100;6.078;2022-07-23T02:35:59;11.90;99.90
52044;DHT22;38053;53.100;6.078;2022-07-23T02:38:25;11.90;99.90
52044;DHT22;38053;53.100;6.078;2022-07-23T02:40:51;11.90;99.90
52044;DHT22;38053;53.100;6.078;2022-07-23T02:43:16;11.90;99.90
52044;DHT22;38053;53.100;6.078;2022-07-23T02:45:42;11.90;99.90
52044;DHT22;38053;53.100;6.078;2022-07-23T02:48:08;11.90;99.90
52044;DHT22;38053;53.100;6.078;2022-07-23T02:50:33;11.90;99.90
52044;DHT22;38053;53.100;6.078;2022-07-23T02:52:59;11.90;99.90
52044;DHT22;38053;53.100;6.078;2022-07-23T02:55:25;11.80;99.90
52044;DHT22;38053;53.100;6.078;2022-07-23T02:57:50;11.80;99.90
52044;DHT22;38053;53.100;6.078;2022-07-23T03:00:16;11.80;99.90
52044;DHT22;38053;53.100;6.078;2022-07-23T03:02:42;11.80;99.90
52044;DHT22;38053;53.100;6.078;2022-07-23T03:05:08;11.80;99.90
52044;DHT22;38053;53.100;6.078;2022-07-23T03:07:34;11.80;99.90
52044;DHT22;38053;53.100;6.078;2022-07-23T03:09:59;11.70;99.90
52044;DHT22;38053;53.100;6.078;2022-07-23T03:12:25;11.70;99.90
52044;DHT22;38053;53.100;6.078;2022-07-23T03:14:50;11.70;99.90
52044;DHT22;38053;53.100;6.078;2022-07-23T03:17:17;11.70;99.90
52044;DHT22;38053;53.100;6.078;2022-07-23T03:19:42;11.70;99.90
52044;DHT22;38053;53.100;6.078;2022-07-23T03:22:08;11.60;99.90
52044;DHT22;38053;53.100;6.078;2022-07-23T03:24:34;11.60;99.90
52044;DHT22;38053;53.100;6.078;2022-07-23T03:27:18;11.60;99.90
52044;DHT22;38053;53.100;6.078;2022-07-23T03:29:43;11.60;99.90
52044;DHT22;38053;53.100;6.078;2022-07-23T03:32:09;11.60;99.90
52044;DHT22;38053;53.100;6.078;2022-07-23T03:34:35;11.60;99.90
52044;DHT22;38053;53.100;6.078;2022-07-23T03:37:01;11.60;99.90
52044;DHT22;38053;53.100;6.078;2022-07-23T03:39:26;11.60;99.90
52044;DHT22;38053;53.100;6.078;2022-07-23T03:41:52;11.60;99.90
52044;DHT22;38053;53.100;6.078;2022-07-23T03:44:18;11.60;99.90
52044;DHT22;38053;53.100;6.078;2022-07-23T03:46:43;11.60;99.90
52044;DHT22;38053;53.100;6.078;2022-07-23T03:49:09;11.50;99.90
52044;DHT22;38053;53.100;6.078;2022-07-23T03:51:34;11.50;99.90
52044;DHT22;38053;53.100;6.078;2022-07-23T03:54:00;11.50;99.90
52044;DHT22;38053;53.100;6.078;2022-07-23T03:56:26;11.50;99.90
52044;DHT22;38053;53.100;6.078;2022-07-23T03:58:52;11.60;99.90
52044;DHT22;38053;53.100;6.078;2022-07-23T04:01:18;11.50;99.90
52044;DHT22;38053;53.100;6.078;2022-07-23T04:03:43;11.50;99.90
52044;DHT22;38053;53.100;6.078;2022-07-23T04:06:09;11.50;99.90
52044;DHT22;38053;53.100;6.078;2022-07-23T04:08:34;11.60;99.90
52044;DHT22;38053;53.100;6.078;2022-07-23T04:11:00;11.60;99.90
52044;DHT22;38053;53.100;6.078;2022-07-23T04:13:26;11.60;99.90
52044;DHT22;38053;53.100;6.078;2022-07-23T04:15:51;11.70;99.90
52044;DHT22;38053;53.100;6.078;2022-07-23T04:18:17;11.70;99.90
52044;DHT22;38053;53.100;6.078;2022-07-23T04:20:44;11.70;99.90
52044;DHT22;38053;53.100;6.078;2022-07-23T04:23:10;11.70;99.90
52044;DHT22;38053;53.100;6.078;2022-07-23T04:25:36;11.70;99.90
52044;DHT22;38053;53.100;6.078;2022-07-23T04:28:01;11.80;99.90
52044;DHT22;38053;53.100;6.078;2022-07-23T04:30:27;11.80;99.90
52044;DHT22;38053;53.100;6.078;2022-07-23T04:32:53;11.80;99.90
52044;DHT22;38053;53.100;6.078;2022-07-23T04:35:19;11.80;99.90
52044;DHT22;38053;53.100;6.078;2022-07-23T04:37:44;11.80;99.90
52044;DHT22;38053;53.100;6.078;2022-07-23T04:40:11;11.80;99.90
52044;DHT22;38053;53.100;6.078;2022-07-23T04:42:37;11.80;99.90
52044;DHT22;38053;53.100;6.078;2022-07-23T04:45:03;11.80;99.90
52044;DHT22;38053;53.100;6.078;2022-07-23T04:47:29;11.90;99.90
52044;DHT22;38053;53.100;6.078;2022-07-23T04:49:56;11.90;99.90
52044;DHT22;38053;53.100;6.078;2022-07-23T04:52:22;11.90;99.90
52044;DHT22;38053;53.100;6.078;2022-07-23T04:54:48;11.90;99.90
52044;DHT22;38053;53.100;6.078;2022-07-23T04:57:14;11.90;99.90
52044;DHT22;38053;53.100;6.078;2022-07-23T04:59:39;11.90;99.90
52044;DHT22;38053;53.100;6.078;2022-07-23T05:02:05;12.00;99.90
52044;DHT22;38053;53.100;6.078;2022-07-23T05:04:31;12.00;99.90
52044;DHT22;38053;53.100;6.078;2022-07-23T05:06:57;12.00;99.90
52044;DHT22;38053;53.100;6.078;2022-07-23T05:09:23;12.10;99.90
52044;DHT22;38053;53.100;6.078;2022-07-23T05:11:49;12.10;99.90
52044;DHT22;38053;53.100;6.078;2022-07-23T05:14:15;12.20;99.90
52044;DHT22;38053;53.100;6.078;2022-07-23T05:16:41;12.20;99.90
52044;DHT22;38053;53.100;6.078;2022-07-23T05:19:06;12.20;99.90
52044;DHT22;38053;53.100;6.078;2022-07-23T05:21:32;12.30;99.90
52044;DHT22;38053;53.100;6.078;2022-07-23T05:23:58;12.30;99.90
52044;DHT22;38053;53.100;6.078;2022-07-23T05:26:24;12.40;99.90
52044;DHT22;38053;53.100;6.078;2022-07-23T05:28:51;12.40;99.90
52044;DHT22;38053;53.100;6.078;2022-07-23T05:31:17;12.50;99.90
52044;DHT22;38053;53.100;6.078;2022-07-23T05:33:42;12.60;99.90
52044;DHT22;38053;53.100;6.078;2022-07-23T05:36:09;12.60;99.90
52044;DHT22;38053;53.100;6.078;2022-07-23T05:38:34;12.70;99.90
52044;DHT22;38053;53.100;6.078;2022-07-23T05:41:00;12.70;99.90
52044;DHT22;38053;53.100;6.078;2022-07-23T05:43:27;12.80;99.90
52044;DHT22;38053;53.100;6.078;2022-07-23T05:45:52;12.90;99.90
52044;DHT22;38053;53.100;6.078;2022-07-23T05:48:19;13.00;99.90
52044;DHT22;38053;53.100;6.078;2022-07-23T05:50:45;13.10;99.90
52044;DHT22;38053;53.100;6.078;2022-07-23T05:53:11;13.10;99.90
52044;DHT22;38053;53.100;6.078;2022-07-23T05:55:36;13.30;99.90
52044;DHT22;38053;53.100;6.078;2022-07-23T05:58:03;13.40;99.90
52044;DHT22;38053;53.100;6.078;2022-07-23T06:00:28;13.50;99.90
52044;DHT22;38053;53.100;6.078;2022-07-23T06:02:54;13.60;99.90
52044;DHT22;38053;53.100;6.078;2022-07-23T06:05:21;13.70;99.90
52044;DHT22;38053;53.100;6.078;2022-07-23T06:07:50;13.80;99.90
52044;DHT22;38053;53.100;6.078;2022-07-23T06:10:16;13.90;99.90
52044;DHT22;38053;53.100;6.078;2022-07-23T06:12:42;14.00;99.90
52044;DHT22;38053;53.100;6.078;2022-07-23T06:15:08;14.00;99.90
52044;DHT22;38053;53.100;6.078;2022-07-23T06:17:41;14.10;99.90
52044;DHT22;38053;53.100;6.078;2022-07-23T06:20:09;14.30;99.90
52044;DHT22;38053;53.100;6.078;2022-07-23T06:22:38;14.30;99.90
52044;DHT22;38053;53.100;6.078;2022-07-23T06:25:05;14.40;99.90
52044;DHT22;38053;53.100;6.078;2022-07-23T06:27:31;14.40;99.90
52044;DHT22;38053;53.100;6.078;2022-07-23T06:29:57;14.50;99.90
52044;DHT22;38053;53.100;6.078;2022-07-23T06:32:25;14.60;99.90
52044;DHT22;38053;53.100;6.078;2022-07-23T06:34:51;14.70;99.90
52044;DHT22;38053;53.100;6.078;2022-07-23T06:37:20;14.70;99.90
52044;DHT22;38053;53.100;6.078;2022-07-23T06:39:48;14.80;99.90
52044;DHT22;38053;53.100;6.078;2022-07-23T06:42:14;14.90;99.90
52044;DHT22;38053;53.100;6.078;2022-07-23T06:44:43;14.90;99.90
52044;DHT22;38053;53.100;6.078;2022-07-23T06:47:10;15.00;99.90
52044;DHT22;38053;53.100;6.078;2022-07-23T06:49:36;15.10;99.90
52044;DHT22;38053;53.100;6.078;2022-07-23T06:52:02;15.20;99.90
52044;DHT22;38053;53.100;6.078;2022-07-23T06:54:31;15.20;99.90
52044;DHT22;38053;53.100;6.078;2022-07-23T06:56:59;15.30;99.90
52044;DHT22;38053;53.100;6.078;2022-07-23T06:59:27;15.40;99.90
52044;DHT22;38053;53.100;6.078;2022-07-23T07:01:55;15.50;99.90
52044;DHT22;38053;53.100;6.078;2022-07-23T07:04:23;15.60;99.90
52044;DHT22;38053;53.100;6.078;2022-07-23T07:06:49;15.60;99.90
52044;DHT22;38053;53.100;6.078;2022-07-23T07:09:15;15.70;99.90
52044;DHT22;38053;53.100;6.078;2022-07-23T07:11:44;15.70;99.90
52044;DHT22;38053;53.100;6.078;2022-07-23T07:14:18;15.80;99.90
52044;DHT22;38053;53.100;6.078;2022-07-23T07:16:44;15.80;99.90
52044;DHT22;38053;53.100;6.078;2022-07-23T07:19:13;15.90;99.90
52044;DHT22;38053;53.100;6.078;2022-07-23T07:21:40;16.10;99.90
52044;DHT22;38053;53.100;6.078;2022-07-23T07:24:08;16.20;99.90
52044;DHT22;38053;53.100;6.078;2022-07-23T07:26:34;16.50;99.90
52044;DHT22;38053;53.100;6.078;2022-07-23T07:29:03;16.70;99.90
52044;DHT22;38053;53.100;6.078;2022-07-23T07:31:29;16.80;99.90
52044;DHT22;38053;53.100;6.078;2022-07-23T07:33:55;16.90;99.90
52044;DHT22;38053;53.100;6.078;2022-07-23T07:36:22;17.10;99.90
52044;DHT22;38053;53.100;6.078;2022-07-23T07:38:53;17.10;99.90
52044;DHT22;38053;53.100;6.078;2022-07-23T07:41:20;17.20;99.90
52044;DHT22;38053;53.100;6.078;2022-07-23T07:43:52;17.30;99.90
52044;DHT22;38053;53.100;6.078;2022-07-23T07:46:22;17.40;99.90
52044;DHT22;38053;53.100;6.078;2022-07-23T07:48:53;17.40;99.90
52044;DHT22;38053;53.100;6.078;2022-07-23T07:51:21;17.60;99.90
52044;DHT22;38053;53.100;6.078;2022-07-23T07:53:47;17.70;99.90
52044;DHT22;38053;53.100;6.078;2022-07-23T07:56:19;17.70;99.90
52044;DHT22;38053;53.100;6.078;2022-07-23T07:58:45;17.80;99.90
52044;DHT22;38053;53.100;6.078;2022-07-23T08:01:12;17.90;99.90
52044;DHT22;38053;53.100;6.078;2022-07-23T08:03:46;17.90;99.90
52044;DHT22;38053;53.100;6.078;2022-07-23T08:06:23;17.90;99.90
52044;DHT22;38053;53.100;6.078;2022-07-23T08:08:53;18.00;99.90
52044;DHT22;38053;53.100;6.078;2022-07-23T08:11:26;18.00;99.90
52044;DHT22;38053;53.100;6.078;2022-07-23T08:13:58;18.00;99.90
52044;DHT22;38053;53.100;6.078;2022-07-23T08:16:24;18.00;99.90
52044;DHT22;38053;53.100;6.078;2022-07-23T08:18:50;18.00;99.90
52044;DHT22;38053;53.100;6.078;2022-07-23T08:21:21;18.00;99.90
52044;DHT22;38053;53.100;6.078;2022-07-23T08:23:48;18.10;99.90
52044;DHT22;38053;53.100;6.078;2022-07-23T08:26:20;18.10;99.90
52044;DHT22;38053;53.100;6.078;2022-07-23T08:28:46;18.10;99.90
52044;DHT22;38053;53.100;6.078;2022-07-23T08:31:17;18.20;99.90
52044;DHT22;38053;53.100;6.078;2022-07-23T08:33:44;18.30;99.90
52044;DHT22;38053;53.100;6.078;2022-07-23T08:36:24;18.30;99.90
52044;DHT22;38053;53.100;6.078;2022-07-23T08:39:00;18.30;99.90
52044;DHT22;38053;53.100;6.078;2022-07-23T08:41:32;18.30;99.90
52044;DHT22;38053;53.100;6.078;2022-07-23T08:44:02;18.20;99.90
52044;DHT22;38053;53.100;6.078;2022-07-23T08:46:33;18.20;99.90
52044;DHT22;38053;53.100;6.078;2022-07-23T08:49:07;18.10;99.90
52044;DHT22;38053;53.100;6.078;2022-07-23T08:51:42;18.00;99.90
52044;DHT22;38053;53.100;6.078;2022-07-23T08:54:12;18.00;99.90
52044;DHT22;38053;53.100;6.078;2022-07-23T08:56:42;17.90;99.90
52044;DHT22;38053;53.100;6.078;2022-07-23T08:59:10;17.90;99.90
52044;DHT22;38053;53.100;6.078;2022-07-23T09:01:39;17.90;99.90
52044;DHT22;38053;53.100;6.078;2022-07-23T09:04:09;17.90;99.90
52044;DHT22;38053;53.100;6.078;2022-07-23T09:06:43;18.00;99.90
52044;DHT22;38053;53.100;6.078;2022-07-23T09:09:21;18.00;99.90
52044;DHT22;38053;53.100;6.078;2022-07-23T09:12:08;18.10;99.90
52044;DHT22;38053;53.100;6.078;2022-07-23T09:14:43;18.20;99.90
52044;DHT22;38053;53.100;6.078;2022-07-23T09:17:26;18.30;99.90
52044;DHT22;38053;53.100;6.078;2022-07-23T09:20:09;18.40;99.90
52044;DHT22;38053;53.100;6.078;2022-07-23T09:22:49;18.50;99.90
52044;DHT22;38053;53.100;6.078;2022-07-23T09:25:19;18.60;99.90
52044;DHT22;38053;53.100;6.078;2022-07-23T09:28:00;18.80;99.90
52044;DHT22;38053;53.100;6.078;2022-07-23T09:30:32;18.90;99.90
52044;DHT22;38053;53.100;6.078;2022-07-23T09:33:15;19.00;99.90
52044;DHT22;38053;53.100;6.078;2022-07-23T09:35:55;19.00;99.90
52044;DHT22;38053;53.100;6.078;2022-07-23T09:38:28;19.10;99.90
52044;DHT22;38053;53.100;6.078;2022-07-23T09:41:10;19.10;99.90
52044;DHT22;38053;53.100;6.078;2022-07-23T09:43:39;19.30;99.90
52044;DHT22;38053;53.100;6.078;2022-07-23T09:46:29;19.30;99.90
52044;DHT22;38053;53.100;6.078;2022-07-23T09:48:57;19.40;99.90
52044;DHT22;38053;53.100;6.078;2022-07-23T09:51:30;19.40;99.90
52044;DHT22;38053;53.100;6.078;2022-07-23T09:54:04;19.40;99.90
52044;DHT22;38053;53.100;6.078;2022-07-23T09:56:39;19.40;99.90
52044;DHT22;38053;53.100;6.078;2022-07-23T09:59:06;19.50;99.90
52044;DHT22;38053;53.100;6.078;2022-07-23T10:01:44;19.50;99.90
52044;DHT22;38053;53.100;6.078;2022-07-23T10:04:11;19.50;99.90
52044;DHT22;38053;53.100;6.078;2022-07-23T10:06:39;19.60;99.90
52044;DHT22;38053;53.100;6.078;2022-07-23T10:09:09;19.60;99.90
52044;DHT22;38053;53.100;6.078;2022-07-23T10:11:36;19.80;99.90
52044;DHT22;38053;53.100;6.078;2022-07-23T10:14:05;19.70;99.90
52044;DHT22;38053;53.100;6.078;2022-07-23T10:16:31;19.90;99.90
52044;DHT22;38053;53.100;6.078;2022-07-23T10:18:57;19.90;99.90
52044;DHT22;38053;53.100;6.078;2022-07-23T10:21:46;19.90;99.90
52044;DHT22;38053;53.100;6.078;2022-07-23T10:24:25;19.90;99.90
52044;DHT22;38053;53.100;6.078;2022-07-23T10:30:04;20.00;99.90
52044;DHT22;38053;53.100;6.078;2022-07-23T10:37:55;20.20;99.90
52044;DHT22;38053;53.100;6.078;2022-07-23T10:40:22;20.50;99.90
52044;DHT22;38053;53.100;6.078;2022-07-23T10:42:52;20.80;99.90
52044;DHT22;38053;53.100;6.078;2022-07-23T10:45:34;20.90;99.90
52044;DHT22;38053;53.100;6.078;2022-07-23T10:50:39;20.90;99.90
52044;DHT22;38053;53.100;6.078;2022-07-23T10:53:16;20.90;99.90
52044;DHT22;38053;53.100;6.078;2022-07-23T10:55:48;20.70;99.90
52044;DHT22;38053;53.100;6.078;2022-07-23T10:58:47;20.70;99.90
52044;DHT22;38053;53.100;6.078;2022-07-23T11:01:35;20.90;99.90
52044;DHT22;38053;53.100;6.078;2022-07-23T11:04:02;21.10;99.90
52044;DHT22;38053;53.100;6.078;2022-07-23T11:09:40;21.50;99.90
52044;DHT22;38053;53.100;6.078;2022-07-23T11:15:13;21.90;99.90
52044;DHT22;38053;53.100;6.078;2022-07-23T11:20:21;22.40;99.90
52044;DHT22;38053;53.100;6.078;2022-07-23T11:22:51;22.40;99.90
52044;DHT22;38053;53.100;6.078;2022-07-23T11:28:06;22.30;99.90
52044;DHT22;38053;53.100;6.078;2022-07-23T11:35:37;22.10;99.90
52044;DHT22;38053;53.100;6.078;2022-07-23T11:38:15;22.00;99.90
52044;DHT22;38053;53.100;6.078;2022-07-23T11:40:44;21.90;99.90
52044;DHT22;38053;53.100;6.078;2022-07-23T11:43:11;22.10;99.90
52044;DHT22;38053;53.100;6.078;2022-07-23T11:48:17;22.40;99.90
52044;DHT22;38053;53.100;6.078;2022-07-23T11:50:43;22.60;99.90
52044;DHT22;38053;53.100;6.078;2022-07-23T11:53:12;22.90;99.90
52044;DHT22;38053;53.100;6.078;2022-07-23T11:55:38;23.20;99.90
52044;DHT22;38053;53.100;6.078;2022-07-23T11:58:04;23.20;99.90
52044;DHT22;38053;53.100;6.078;2022-07-23T12:00:31;23.30;99.90
52044;DHT22;38053;53.100;6.078;2022-07-23T12:02:59;23.50;99.90
52044;DHT22;38053;53.100;6.078;2022-07-23T12:05:30;23.90;99.90
52044;DHT22;38053;53.100;6.078;2022-07-23T12:07:57;24.00;99.90
52044;DHT22;38053;53.100;6.078;2022-07-23T12:12:55;24.00;99.90
52044;DHT22;38053;53.100;6.078;2022-07-23T12:15:26;24.20;99.90
52044;DHT22;38053;53.100;6.078;2022-07-23T12:17:52;24.20;99.90
52044;DHT22;38053;53.100;6.078;2022-07-23T12:20:28;24.00;99.90
52044;DHT22;38053;53.100;6.078;2022-07-23T12:23:01;23.80;99.90
52044;DHT22;38053;53.100;6.078;2022-07-23T12:25:30;24.00;99.90
52044;DHT22;38053;53.100;6.078;2022-07-23T12:28:07;24.20;99.90
52044;DHT22;38053;53.100;6.078;2022-07-23T12:30:52;24.30;99.90
52044;DHT22;38053;53.100;6.078;2022-07-23T12:33:41;24.40;99.90
52044;DHT22;38053;53.100;6.078;2022-07-23T12:36:11;24.50;99.90
52044;DHT22;38053;53.100;6.078;2022-07-23T12:38:47;24.70;99.90
52044;DHT22;38053;53.100;6.078;2022-07-23T12:41:16;24.80;99.90
52044;DHT22;38053;53.100;6.078;2022-07-23T12:43:44;24.80;99.90
52044;DHT22;38053;53.100;6.078;2022-07-23T12:46:18;24.50;99.90
52044;DHT22;38053;53.100;6.078;2022-07-23T12:51:21;24.40;99.90
52044;DHT22;38053;53.100;6.078;2022-07-23T12:53:54;24.40;99.90
52044;DHT22;38053;53.100;6.078;2022-07-23T12:56:30;24.30;99.90
52044;DHT22;38053;53.100;6.078;2022-07-23T13:01:31;23.90;99.90
52044;DHT22;38053;53.100;6.078;2022-07-23T13:04:17;24.00;99.90
52044;DHT22;38053;53.100;6.078;2022-07-23T13:06:57;24.80;99.90
52044;DHT22;38053;53.100;6.078;2022-07-23T13:09:28;25.60;99.90
52044;DHT22;38053;53.100;6.078;2022-07-23T13:11:55;25.60;99.90
52044;DHT22;38053;53.100;6.078;2022-07-23T13:14:22;25.30;99.90
52044;DHT22;38053;53.100;6.078;2022-07-23T13:16:49;24.90;99.90
52044;DHT22;38053;53.100;6.078;2022-07-23T13:19:18;24.90;99.90
52044;DHT22;38053;53.100;6.078;2022-07-23T13:21:45;25.30;99.90
52044;DHT22;38053;53.100;6.078;2022-07-23T13:24:12;25.30;99.90
52044;DHT22;38053;53.100;6.078;2022-07-23T13:26:38;25.10;99.90
52044;DHT22;38053;53.100;6.078;2022-07-23T13:29:05;24.90;99.90
52044;DHT22;38053;53.100;6.078;2022-07-23T13:31:30;24.80;99.90
52044;DHT22;38053;53.100;6.078;2022-07-23T13:33:56;25.10;99.90
52044;DHT22;38053;53.100;6.078;2022-07-23T13:36:22;25.70;99.90
52044;DHT22;38053;53.100;6.078;2022-07-23T13:38:48;26.20;99.90
52044;DHT22;38053;53.100;6.078;2022-07-23T13:41:13;26.70;99.10
52044;DHT22;38053;53.100;6.078;2022-07-23T13:43:42;26.80;98.40
52044;DHT22;38053;53.100;6.078;2022-07-23T13:46:10;26.30;98.40
52044;DHT22;38053;53.100;6.078;2022-07-23T13:48:36;25.90;98.90
52044;DHT22;38053;53.100;6.078;2022-07-23T13:51:02;25.60;99.90
52044;DHT22;38053;53.100;6.078;2022-07-23T13:56:34;26.20;98.70
52044;DHT22;38053;53.100;6.078;2022-07-23T13:58:59;26.30;98.00
52044;DHT22;38053;53.100;6.078;2022-07-23T14:01:25;25.90;98.80
52044;DHT22;38053;53.100;6.078;2022-07-23T14:03:51;26.00;98.70
52044;DHT22;38053;53.100;6.078;2022-07-23T14:06:17;26.30;98.60
52044;DHT22;38053;53.100;6.078;2022-07-23T14:08:44;26.10;97.80
52044;DHT22;38053;53.100;6.078;2022-07-23T14:11:09;25.50;98.10
52044;DHT22;38053;53.100;6.078;2022-07-23T14:13:40;24.90;99.00
52044;DHT22;38053;53.100;6.078;2022-07-23T14:16:08;24.50;99.80
52044;DHT22;38053;53.100;6.078;2022-07-23T14:18:34;24.20;99.90
52044;DHT22;38053;53.100;6.078;2022-07-23T14:21:00;24.30;99.90
52044;DHT22;38053;53.100;6.078;2022-07-23T14:23:26;24.60;99.70
52044;DHT22;38053;53.100;6.078;2022-07-23T14:25:51;24.90;99.30
52044;DHT22;38053;53.100;6.078;2022-07-23T14:28:17;24.90;99.10
52044;DHT22;38053;53.100;6.078;2022-07-23T14:30:43;24.90;99.60
52044;DHT22;38053;53.100;6.078;2022-07-23T14:33:09;25.00;99.70
52044;DHT22;38053;53.100;6.078;2022-07-23T14:35:35;25.20;99.20
52044;DHT22;38053;53.100;6.078;2022-07-23T14:38:00;25.20;99.10
52044;DHT22;38053;53.100;6.078;2022-07-23T14:40:26;24.70;99.20
52044;DHT22;38053;53.100;6.078;2022-07-23T14:42:52;24.40;99.80
52044;DHT22;38053;53.100;6.078;2022-07-23T14:45:20;24.30;99.90
52044;DHT22;38053;53.100;6.078;2022-07-23T14:47:47;24.40;99.80
52044;DHT22;38053;53.100;6.078;2022-07-23T14:50:12;24.30;99.90
52044;DHT22;38053;53.100;6.078;2022-07-23T14:52:38;24.10;99.90
52044;DHT22;38053;53.100;6.078;2022-07-23T14:55:04;23.80;99.90
52044;DHT22;38053;53.100;6.078;2022-07-23T14:57:30;23.80;99.90
52044;DHT22;38053;53.100;6.078;2022-07-23T14:59:57;23.70;99.90
52044;DHT22;38053;53.100;6.078;2022-07-23T15:02:25;23.70;99.90
52044;DHT22;38053;53.100;6.078;2022-07-23T15:04:51;23.80;99.90
52044;DHT22;38053;53.100;6.078;2022-07-23T15:07:19;23.80;99.90
52044;DHT22;38053;53.100;6.078;2022-07-23T15:09:45;23.70;99.90
52044;DHT22;38053;53.100;6.078;2022-07-23T15:12:11;23.70;99.90
52044;DHT22;38053;53.100;6.078;2022-07-23T15:14:36;23.60;99.90
52044;DHT22;38053;53.100;6.078;2022-07-23T15:17:02;23.70;99.90
52044;DHT22;38053;53.100;6.078;2022-07-23T15:19:28;23.70;99.90
52044;DHT22;38053;53.100;6.078;2022-07-23T15:21:53;23.80;99.90
52044;DHT22;38053;53.100;6.078;2022-07-23T15:24:19;23.80;99.90
52044;DHT22;38053;53.100;6.078;2022-07-23T15:26:45;23.80;99.90
52044;DHT22;38053;53.100;6.078;2022-07-23T15:29:10;23.80;99.90
52044;DHT22;38053;53.100;6.078;2022-07-23T15:31:36;23.90;99.90
52044;DHT22;38053;53.100;6.078;2022-07-23T15:34:02;24.00;99.90
52044;DHT22;38053;53.100;6.078;2022-07-23T15:36:27;24.00;99.90
52044;DHT22;38053;53.100;6.078;2022-07-23T15:38:53;24.00;99.90
52044;DHT22;38053;53.100;6.078;2022-07-23T15:41:19;24.00;99.90
52044;DHT22;38053;53.100;6.078;2022-07-23T15:43:44;24.50;99.90
52044;DHT22;38053;53.100;6.078;2022-07-23T15:46:10;25.30;99.80
52044;DHT22;38053;53.100;6.078;2022-07-23T15:48:37;26.20;98.90
52044;DHT22;38053;53.100;6.078;2022-07-23T15:51:04;26.70;97.90
52044;DHT22;38053;53.100;6.078;2022-07-23T15:53:31;27.40;97.70
52044;DHT22;38053;53.100;6.078;2022-07-23T15:56:00;28.20;96.80
52044;DHT22;38053;53.100;6.078;2022-07-23T15:58:28;28.90;95.30
52044;DHT22;38053;53.100;6.078;2022-07-23T16:00:54;29.30;93.90
52044;DHT22;38053;53.100;6.078;2022-07-23T16:03:20;29.60;94.00
52044;DHT22;38053;53.100;6.078;2022-07-23T16:05:45;30.00;93.20
52044;DHT22;38053;53.100;6.078;2022-07-23T16:08:11;30.30;92.10
52044;DHT22;38053;53.100;6.078;2022-07-23T16:10:37;30.60;91.60
52044;DHT22;38053;53.100;6.078;2022-07-23T16:13:03;30.70;90.80
52044;DHT22;38053;53.100;6.078;2022-07-23T16:15:28;30.80;90.40
52044;DHT22;38053;53.100;6.078;2022-07-23T16:17:57;31.00;90.50